sensor_id;sensor_type;location;lat;lon;timestamp;P1;durP1;ratioP1;P2;durP2;ratioP2
39098;SDS011;24844;52.380;7.018;2023-03-01T00:02:01;51.85;;;29.75;;
39098;SDS011;24844;52.380;7.018;2023-03-01T00:04:27;45.40;;;27.80;;
39098;SDS011;24844;52.380;7.018;2023-03-01T00:06:53;36.97;;;23.35;;
39098;SDS011;24844;52.380;7.018;2023-03-01T00:09:19;35.42;;;23.35;;
39098;SDS011;24844;52.380;7.018;2023-03-01T00:11:44;38.17;;;22.40;;
39098;SDS011;24844;52.380;7.018;2023-03-01T00:14:10;36.00;;;21.55;;
39098;SDS011;24844;52.380;7.018;2023-03-01T00:16:37;36.38;;;22.40;;
39098;SDS011;24844;52.380;7.018;2023-03-01T00:21:31;41.08;;;22.58;;
39098;SDS011;24844;52.380;7.018;2023-03-01T00:23:56;41.53;;;22.95;;
39098;SDS011;24844;52.380;7.018;2023-03-01T00:26:22;36.85;;;21.35;;
39098;SDS011;24844;52.380;7.018;2023-03-01T00:28:49;36.28;;;21.98;;
39098;SDS011;24844;52.380;7.018;2023-03-01T00:31:17;39.70;;;22.05;;
39098;SDS011;24844;52.380;7.018;2023-03-01T00:33:45;41.88;;;23.55;;
39098;SDS011;24844;52.380;7.018;2023-03-01T00:36:12;36.30;;;21.92;;
39098;SDS011;24844;52.380;7.018;2023-03-01T00:38:40;36.42;;;21.63;;
39098;SDS011;24844;52.380;7.018;2023-03-01T00:41:09;35.40;;;20.80;;
39098;SDS011;24844;52.380;7.018;2023-03-01T00:46:02;32.00;;;18.50;;
39098;SDS011;24844;52.380;7.018;2023-03-01T00:48:32;27.73;;;16.40;;
39098;SDS011;24844;52.380;7.018;2023-03-01T00:51:14;29.95;;;17.38;;
39098;SDS011;24844;52.380;7.018;2023-03-01T00:53:42;27.30;;;16.00;;
39098;SDS011;24844;52.380;7.018;2023-03-01T00:56:09;24.83;;;15.90;;
39098;SDS011;24844;52.380;7.018;2023-03-01T00:58:35;30.77;;;18.70;;
39098;SDS011;24844;52.380;7.018;2023-03-01T01:01:07;27.58;;;17.50;;
39098;SDS011;24844;52.380;7.018;2023-03-01T01:03:47;21.52;;;13.88;;
39098;SDS011;24844;52.380;7.018;2023-03-01T01:06:28;25.75;;;14.48;;
39098;SDS011;24844;52.380;7.018;2023-03-01T01:08:56;17.65;;;12.55;;
39098;SDS011;24844;52.380;7.018;2023-03-01T01:11:23;20.88;;;13.77;;
39098;SDS011;24844;52.380;7.018;2023-03-01T01:16:17;26.05;;;16.00;;
39098;SDS011;24844;52.380;7.018;2023-03-01T01:18:43;20.10;;;13.68;;
39098;SDS011;24844;52.380;7.018;2023-03-01T01:21:11;21.10;;;13.05;;
39098;SDS011;24844;52.380;7.018;2023-03-01T01:23:38;17.35;;;11.93;;
39098;SDS011;24844;52.380;7.018;2023-03-01T01:26:09;17.50;;;11.50;;
39098;SDS011;24844;52.380;7.018;2023-03-01T01:28:36;18.63;;;11.95;;
39098;SDS011;24844;52.380;7.018;2023-03-01T01:31:02;23.42;;;13.90;;
39098;SDS011;24844;52.380;7.018;2023-03-01T01:33:28;20.02;;;12.75;;
39098;SDS011;24844;52.380;7.018;2023-03-01T01:35:54;18.45;;;11.60;;
39098;SDS011;24844;52.380;7.018;2023-03-01T01:38:20;17.33;;;11.40;;
39098;SDS011;24844;52.380;7.018;2023-03-01T01:40:46;19.35;;;12.38;;
39098;SDS011;24844;52.380;7.018;2023-03-01T01:43:23;18.50;;;11.43;;
39098;SDS011;24844;52.380;7.018;2023-03-01T01:45:52;18.65;;;10.52;;
39098;SDS011;24844;52.380;7.018;2023-03-01T01:48:22;14.95;;;10.55;;
39098;SDS011;24844;52.380;7.018;2023-03-01T01:50:54;18.30;;;10.43;;
39098;SDS011;24844;52.380;7.018;2023-03-01T01:53:23;17.73;;;11.18;;
39098;SDS011;24844;52.380;7.018;2023-03-01T01:55:54;20.48;;;12.52;;
39098;SDS011;24844;52.380;7.018;2023-03-01T01:58:22;16.85;;;10.93;;
39098;SDS011;24844;52.380;7.018;2023-03-01T02:00:50;11.80;;;7.83;;
39098;SDS011;24844;52.380;7.018;2023-03-01T02:03:20;15.88;;;10.85;;
39098;SDS011;24844;52.380;7.018;2023-03-01T02:05:54;17.38;;;11.30;;
39098;SDS011;24844;52.380;7.018;2023-03-01T02:08:43;22.50;;;13.32;;
39098;SDS011;24844;52.380;7.018;2023-03-01T02:11:10;16.77;;;10.48;;
39098;SDS011;24844;52.380;7.018;2023-03-01T02:13:39;17.20;;;10.85;;
39098;SDS011;24844;52.380;7.018;2023-03-01T02:16:09;17.77;;;11.23;;
39098;SDS011;24844;52.380;7.018;2023-03-01T02:18:38;16.95;;;10.32;;
39098;SDS011;24844;52.380;7.018;2023-03-01T02:23:50;18.92;;;10.00;;
39098;SDS011;24844;52.380;7.018;2023-03-01T02:29:05;17.60;;;10.30;;
39098;SDS011;24844;52.380;7.018;2023-03-01T02:31:31;17.13;;;10.00;;
39098;SDS011;24844;52.380;7.018;2023-03-01T02:36:47;14.93;;;9.70;;
39098;SDS011;24844;52.380;7.018;2023-03-01T02:39:17;22.80;;;12.80;;
39098;SDS011;24844;52.380;7.018;2023-03-01T02:41:47;17.30;;;10.45;;
39098;SDS011;24844;52.380;7.018;2023-03-01T02:44:15;16.73;;;10.70;;
39098;SDS011;24844;52.380;7.018;2023-03-01T02:46:48;17.90;;;11.35;;
39098;SDS011;24844;52.380;7.018;2023-03-01T02:49:17;19.05;;;11.30;;
39098;SDS011;24844;52.380;7.018;2023-03-01T02:51:48;15.25;;;10.27;;
39098;SDS011;24844;52.380;7.018;2023-03-01T02:56:50;19.25;;;11.38;;
39098;SDS011;24844;52.380;7.018;2023-03-01T02:59:17;17.40;;;10.88;;
39098;SDS011;24844;52.380;7.018;2023-03-01T03:04:13;16.67;;;10.98;;
39098;SDS011;24844;52.380;7.018;2023-03-01T03:06:44;17.38;;;10.45;;
39098;SDS011;24844;52.380;7.018;2023-03-01T03:09:11;15.82;;;10.48;;
39098;SDS011;24844;52.380;7.018;2023-03-01T03:11:38;19.13;;;12.18;;
39098;SDS011;24844;52.380;7.018;2023-03-01T03:14:08;18.42;;;11.25;;
39098;SDS011;24844;52.380;7.018;2023-03-01T03:16:39;14.27;;;9.82;;
39098;SDS011;24844;52.380;7.018;2023-03-01T03:19:09;19.50;;;10.30;;
39098;SDS011;24844;52.380;7.018;2023-03-01T03:21:35;16.17;;;10.52;;
39098;SDS011;24844;52.380;7.018;2023-03-01T03:24:02;18.25;;;11.48;;
39098;SDS011;24844;52.380;7.018;2023-03-01T03:26:29;17.20;;;10.95;;
39098;SDS011;24844;52.380;7.018;2023-03-01T03:28:54;13.10;;;8.70;;
39098;SDS011;24844;52.380;7.018;2023-03-01T03:31:20;17.35;;;11.63;;
39098;SDS011;24844;52.380;7.018;2023-03-01T03:33:46;19.88;;;12.20;;
39098;SDS011;24844;52.380;7.018;2023-03-01T03:36:15;18.75;;;12.00;;
39098;SDS011;24844;52.380;7.018;2023-03-01T03:38:42;15.98;;;11.07;;
39098;SDS011;24844;52.380;7.018;2023-03-01T03:41:09;16.45;;;11.13;;
39098;SDS011;24844;52.380;7.018;2023-03-01T03:43:35;16.25;;;10.20;;
39098;SDS011;24844;52.380;7.018;2023-03-01T03:46:03;12.90;;;8.85;;
39098;SDS011;24844;52.380;7.018;2023-03-01T03:48:39;18.40;;;11.50;;
39098;SDS011;24844;52.380;7.018;2023-03-01T03:51:09;18.73;;;12.18;;
39098;SDS011;24844;52.380;7.018;2023-03-01T03:53:38;20.10;;;12.45;;
39098;SDS011;24844;52.380;7.018;2023-03-01T03:56:05;21.92;;;12.45;;
39098;SDS011;24844;52.380;7.018;2023-03-01T03:58:30;18.23;;;11.25;;
39098;SDS011;24844;52.380;7.018;2023-03-01T04:00:57;19.23;;;12.02;;
39098;SDS011;24844;52.380;7.018;2023-03-01T04:03:23;15.73;;;10.75;;
39098;SDS011;24844;52.380;7.018;2023-03-01T04:05:50;12.50;;;8.50;;
39098;SDS011;24844;52.380;7.018;2023-03-01T04:08:20;18.80;;;12.07;;
39098;SDS011;24844;52.380;7.018;2023-03-01T04:10:48;16.90;;;11.13;;
39098;SDS011;24844;52.380;7.018;2023-03-01T04:13:16;15.07;;;10.75;;
39098;SDS011;24844;52.380;7.018;2023-03-01T04:15:48;17.70;;;11.88;;
39098;SDS011;24844;52.380;7.018;2023-03-01T04:18:15;17.30;;;11.45;;
39098;SDS011;24844;52.380;7.018;2023-03-01T04:20:42;16.30;;;11.07;;
39098;SDS011;24844;52.380;7.018;2023-03-01T04:23:11;15.85;;;10.27;;
39098;SDS011;24844;52.380;7.018;2023-03-01T04:25:57;15.68;;;10.57;;
39098;SDS011;24844;52.380;7.018;2023-03-01T04:30:51;16.15;;;10.65;;
39098;SDS011;24844;52.380;7.018;2023-03-01T04:33:18;17.75;;;10.25;;
39098;SDS011;24844;52.380;7.018;2023-03-01T04:35:43;19.90;;;13.20;;
39098;SDS011;24844;52.380;7.018;2023-03-01T04:38:09;19.23;;;12.50;;
39098;SDS011;24844;52.380;7.018;2023-03-01T04:40:35;16.48;;;11.00;;
39098;SDS011;24844;52.380;7.018;2023-03-01T04:43:01;24.20;;;13.98;;
39098;SDS011;24844;52.380;7.018;2023-03-01T04:45:27;21.23;;;13.40;;
39098;SDS011;24844;52.380;7.018;2023-03-01T04:47:53;22.60;;;12.27;;
39098;SDS011;24844;52.380;7.018;2023-03-01T04:50:19;19.00;;;12.40;;
39098;SDS011;24844;52.380;7.018;2023-03-01T04:52:48;16.38;;;10.93;;
39098;SDS011;24844;52.380;7.018;2023-03-01T04:55:14;16.55;;;11.68;;
39098;SDS011;24844;52.380;7.018;2023-03-01T04:57:40;18.77;;;11.27;;
39098;SDS011;24844;52.380;7.018;2023-03-01T05:00:07;18.23;;;10.45;;
39098;SDS011;24844;52.380;7.018;2023-03-01T05:02:52;16.13;;;10.73;;
39098;SDS011;24844;52.380;7.018;2023-03-01T05:05:21;24.73;;;13.63;;
39098;SDS011;24844;52.380;7.018;2023-03-01T05:07:56;16.92;;;10.68;;
39098;SDS011;24844;52.380;7.018;2023-03-01T05:10:24;18.58;;;11.23;;
39098;SDS011;24844;52.380;7.018;2023-03-01T05:12:51;15.93;;;10.27;;
39098;SDS011;24844;52.380;7.018;2023-03-01T05:17:46;15.68;;;10.20;;
39098;SDS011;24844;52.380;7.018;2023-03-01T05:20:13;15.65;;;10.23;;
39098;SDS011;24844;52.380;7.018;2023-03-01T05:22:38;15.93;;;10.43;;
39098;SDS011;24844;52.380;7.018;2023-03-01T05:25:05;14.25;;;9.57;;
39098;SDS011;24844;52.380;7.018;2023-03-01T05:27:32;16.90;;;11.10;;
39098;SDS011;24844;52.380;7.018;2023-03-01T05:29:57;14.38;;;9.35;;
39098;SDS011;24844;52.380;7.018;2023-03-01T05:32:23;20.63;;;13.02;;
39098;SDS011;24844;52.380;7.018;2023-03-01T05:34:49;18.15;;;11.18;;
39098;SDS011;24844;52.380;7.018;2023-03-01T05:37:14;20.13;;;12.77;;
39098;SDS011;24844;52.380;7.018;2023-03-01T05:39:40;21.95;;;12.60;;
39098;SDS011;24844;52.380;7.018;2023-03-01T05:42:08;18.63;;;11.43;;
39098;SDS011;24844;52.380;7.018;2023-03-01T05:44:35;17.77;;;11.30;;
39098;SDS011;24844;52.380;7.018;2023-03-01T05:47:01;18.27;;;10.65;;
39098;SDS011;24844;52.380;7.018;2023-03-01T05:49:26;17.70;;;11.32;;
39098;SDS011;24844;52.380;7.018;2023-03-01T05:51:52;18.40;;;10.35;;
39098;SDS011;24844;52.380;7.018;2023-03-01T05:54:21;16.40;;;10.93;;
39098;SDS011;24844;52.380;7.018;2023-03-01T05:56:47;17.30;;;10.93;;
39098;SDS011;24844;52.380;7.018;2023-03-01T05:59:12;18.67;;;10.82;;
39098;SDS011;24844;52.380;7.018;2023-03-01T06:01:39;16.88;;;11.35;;
39098;SDS011;24844;52.380;7.018;2023-03-01T06:04:05;17.90;;;11.90;;
39098;SDS011;24844;52.380;7.018;2023-03-01T06:06:34;18.77;;;10.98;;
39098;SDS011;24844;52.380;7.018;2023-03-01T06:09:02;16.25;;;10.52;;
39098;SDS011;24844;52.380;7.018;2023-03-01T06:11:28;22.80;;;12.43;;
39098;SDS011;24844;52.380;7.018;2023-03-01T06:13:54;22.75;;;13.35;;
39098;SDS011;24844;52.380;7.018;2023-03-01T06:16:19;25.20;;;15.07;;
39098;SDS011;24844;52.380;7.018;2023-03-01T06:18:45;20.73;;;12.85;;
39098;SDS011;24844;52.380;7.018;2023-03-01T06:21:11;19.73;;;12.15;;
39098;SDS011;24844;52.380;7.018;2023-03-01T06:23:36;23.20;;;13.88;;
39098;SDS011;24844;52.380;7.018;2023-03-01T06:26:04;20.45;;;12.23;;
39098;SDS011;24844;52.380;7.018;2023-03-01T06:28:31;19.17;;;13.00;;
39098;SDS011;24844;52.380;7.018;2023-03-01T06:30:56;20.83;;;13.38;;
39098;SDS011;24844;52.380;7.018;2023-03-01T06:33:22;21.38;;;13.38;;
39098;SDS011;24844;52.380;7.018;2023-03-01T06:35:49;19.98;;;12.30;;
39098;SDS011;24844;52.380;7.018;2023-03-01T06:38:15;31.70;;;13.20;;
39098;SDS011;24844;52.380;7.018;2023-03-01T06:40:43;28.50;;;14.27;;
39098;SDS011;24844;52.380;7.018;2023-03-01T06:43:09;22.92;;;13.45;;
39098;SDS011;24844;52.380;7.018;2023-03-01T06:45:35;27.35;;;14.70;;
39098;SDS011;24844;52.380;7.018;2023-03-01T06:48:05;23.52;;;13.75;;
39098;SDS011;24844;52.380;7.018;2023-03-01T06:50:31;24.17;;;15.35;;
39098;SDS011;24844;52.380;7.018;2023-03-01T06:52:58;20.73;;;13.77;;
39098;SDS011;24844;52.380;7.018;2023-03-01T06:55:24;19.50;;;12.77;;
39098;SDS011;24844;52.380;7.018;2023-03-01T06:57:53;19.83;;;12.82;;
39098;SDS011;24844;52.380;7.018;2023-03-01T07:00:26;26.38;;;15.13;;
39098;SDS011;24844;52.380;7.018;2023-03-01T07:02:53;18.98;;;12.45;;
39098;SDS011;24844;52.380;7.018;2023-03-01T07:05:19;19.17;;;12.43;;
39098;SDS011;24844;52.380;7.018;2023-03-01T07:07:45;26.25;;;15.77;;
39098;SDS011;24844;52.380;7.018;2023-03-01T07:10:10;22.73;;;16.48;;
39098;SDS011;24844;52.380;7.018;2023-03-01T07:12:37;25.33;;;16.67;;
39098;SDS011;24844;52.380;7.018;2023-03-01T07:15:03;26.33;;;17.08;;
39098;SDS011;24844;52.380;7.018;2023-03-01T07:17:29;23.35;;;14.27;;
39098;SDS011;24844;52.380;7.018;2023-03-01T07:19:55;23.55;;;15.40;;
39098;SDS011;24844;52.380;7.018;2023-03-01T07:22:21;24.13;;;15.18;;
39098;SDS011;24844;52.380;7.018;2023-03-01T07:24:47;22.98;;;15.55;;
39098;SDS011;24844;52.380;7.018;2023-03-01T07:27:12;24.35;;;16.50;;
39098;SDS011;24844;52.380;7.018;2023-03-01T07:29:38;26.65;;;16.83;;
39098;SDS011;24844;52.380;7.018;2023-03-01T07:32:04;24.77;;;16.65;;
39098;SDS011;24844;52.380;7.018;2023-03-01T07:34:30;25.10;;;16.77;;
39098;SDS011;24844;52.380;7.018;2023-03-01T07:36:56;28.60;;;18.38;;
39098;SDS011;24844;52.380;7.018;2023-03-01T07:39:21;25.92;;;17.20;;
39098;SDS011;24844;52.380;7.018;2023-03-01T07:41:49;23.15;;;15.60;;
39098;SDS011;24844;52.380;7.018;2023-03-01T07:44:15;29.17;;;17.50;;
39098;SDS011;24844;52.380;7.018;2023-03-01T07:46:42;26.83;;;16.55;;
39098;SDS011;24844;52.380;7.018;2023-03-01T07:49:08;26.30;;;15.82;;
39098;SDS011;24844;52.380;7.018;2023-03-01T07:51:34;24.08;;;13.80;;
39098;SDS011;24844;52.380;7.018;2023-03-01T07:53:59;23.38;;;14.75;;
39098;SDS011;24844;52.380;7.018;2023-03-01T07:56:25;23.55;;;14.27;;
39098;SDS011;24844;52.380;7.018;2023-03-01T07:58:51;20.60;;;14.35;;
39098;SDS011;24844;52.380;7.018;2023-03-01T08:01:17;21.23;;;15.15;;
39098;SDS011;24844;52.380;7.018;2023-03-01T08:03:44;22.77;;;14.35;;
39098;SDS011;24844;52.380;7.018;2023-03-01T08:06:11;19.67;;;13.25;;
39098;SDS011;24844;52.380;7.018;2023-03-01T08:08:38;20.15;;;14.30;;
39098;SDS011;24844;52.380;7.018;2023-03-01T08:11:04;22.25;;;14.98;;
39098;SDS011;24844;52.380;7.018;2023-03-01T08:13:31;26.45;;;16.45;;
39098;SDS011;24844;52.380;7.018;2023-03-01T08:16:02;20.77;;;14.70;;
39098;SDS011;24844;52.380;7.018;2023-03-01T08:18:38;17.67;;;13.25;;
39098;SDS011;24844;52.380;7.018;2023-03-01T08:21:04;24.20;;;15.20;;
39098;SDS011;24844;52.380;7.018;2023-03-01T08:23:34;19.20;;;14.55;;
39098;SDS011;24844;52.380;7.018;2023-03-01T08:26:04;21.33;;;13.48;;
39098;SDS011;24844;52.380;7.018;2023-03-01T08:28:31;19.38;;;13.48;;
39098;SDS011;24844;52.380;7.018;2023-03-01T08:30:57;19.15;;;14.15;;
39098;SDS011;24844;52.380;7.018;2023-03-01T08:33:22;16.48;;;11.88;;
39098;SDS011;24844;52.380;7.018;2023-03-01T08:35:49;17.45;;;12.30;;
39098;SDS011;24844;52.380;7.018;2023-03-01T08:38:14;21.67;;;12.93;;
39098;SDS011;24844;52.380;7.018;2023-03-01T08:40:40;14.85;;;11.63;;
39098;SDS011;24844;52.380;7.018;2023-03-01T08:43:05;14.95;;;11.45;;
39098;SDS011;24844;52.380;7.018;2023-03-01T08:45:31;16.75;;;10.18;;
39098;SDS011;24844;52.380;7.018;2023-03-01T08:47:56;12.02;;;8.77;;
39098;SDS011;24844;52.380;7.018;2023-03-01T08:50:22;11.65;;;8.02;;
39098;SDS011;24844;52.380;7.018;2023-03-01T08:52:49;11.82;;;7.43;;
39098;SDS011;24844;52.380;7.018;2023-03-01T08:55:15;9.18;;;6.60;;
39098;SDS011;24844;52.380;7.018;2023-03-01T08:57:42;8.82;;;7.50;;
39098;SDS011;24844;52.380;7.018;2023-03-01T09:00:08;9.43;;;6.95;;
39098;SDS011;24844;52.380;7.018;2023-03-01T09:02:34;11.15;;;6.90;;
39098;SDS011;24844;52.380;7.018;2023-03-01T09:05:00;8.32;;;6.28;;
39098;SDS011;24844;52.380;7.018;2023-03-01T09:07:26;10.00;;;6.68;;
39098;SDS011;24844;52.380;7.018;2023-03-01T09:09:53;7.80;;;6.18;;
39098;SDS011;24844;52.380;7.018;2023-03-01T09:12:19;7.97;;;5.80;;
39098;SDS011;24844;52.380;7.018;2023-03-01T09:14:44;9.82;;;6.20;;
39098;SDS011;24844;52.380;7.018;2023-03-01T09:17:10;9.02;;;6.13;;
39098;SDS011;24844;52.380;7.018;2023-03-01T09:19:36;7.82;;;5.45;;
39098;SDS011;24844;52.380;7.018;2023-03-01T09:22:02;8.02;;;5.50;;
39098;SDS011;24844;52.380;7.018;2023-03-01T09:24:29;9.63;;;5.22;;
39098;SDS011;24844;52.380;7.018;2023-03-01T09:26:54;9.82;;;5.40;;
39098;SDS011;24844;52.380;7.018;2023-03-01T09:29:21;7.15;;;4.78;;
39098;SDS011;24844;52.380;7.018;2023-03-01T09:31:47;7.72;;;5.25;;
39098;SDS011;24844;52.380;7.018;2023-03-01T09:34:12;6.43;;;4.57;;
39098;SDS011;24844;52.380;7.018;2023-03-01T09:36:41;7.00;;;4.90;;
39098;SDS011;24844;52.380;7.018;2023-03-01T09:39:06;6.50;;;4.78;;
39098;SDS011;24844;52.380;7.018;2023-03-01T09:46:43;8.98;;;5.43;;
39098;SDS011;24844;52.380;7.018;2023-03-01T09:49:20;7.70;;;5.18;;
39098;SDS011;24844;52.380;7.018;2023-03-01T09:51:57;7.85;;;5.10;;
39098;SDS011;24844;52.380;7.018;2023-03-01T09:54:44;8.80;;;4.78;;
39098;SDS011;24844;52.380;7.018;2023-03-01T10:00:00;7.60;;;4.45;;
39098;SDS011;24844;52.380;7.018;2023-03-01T10:02:54;8.93;;;5.03;;
39098;SDS011;24844;52.380;7.018;2023-03-01T10:08:28;9.40;;;4.75;;
39098;SDS011;24844;52.380;7.018;2023-03-01T10:11:19;7.75;;;4.80;;
39098;SDS011;24844;52.380;7.018;2023-03-01T10:17:02;11.73;;;5.53;;
39098;SDS011;24844;52.380;7.018;2023-03-01T10:19:36;8.75;;;5.60;;
39098;SDS011;24844;52.380;7.018;2023-03-01T10:22:13;10.07;;;5.28;;
39098;SDS011;24844;52.380;7.018;2023-03-01T10:24:46;6.70;;;4.45;;
39098;SDS011;24844;52.380;7.018;2023-03-01T10:27:23;7.78;;;4.75;;
39098;SDS011;24844;52.380;7.018;2023-03-01T10:33:04;7.28;;;4.78;;
39098;SDS011;24844;52.380;7.018;2023-03-01T10:35:54;8.02;;;5.07;;
39098;SDS011;24844;52.380;7.018;2023-03-01T10:38:20;8.82;;;4.90;;
39098;SDS011;24844;52.380;7.018;2023-03-01T10:40:56;7.20;;;4.80;;
39098;SDS011;24844;52.380;7.018;2023-03-01T10:43:24;9.53;;;5.40;;
39098;SDS011;24844;52.380;7.018;2023-03-01T10:45:52;6.80;;;4.53;;
39098;SDS011;24844;52.380;7.018;2023-03-01T10:56:21;8.57;;;4.80;;
39098;SDS011;24844;52.380;7.018;2023-03-01T11:01:25;7.93;;;4.72;;
39098;SDS011;24844;52.380;7.018;2023-03-01T11:06:30;8.00;;;4.60;;
39098;SDS011;24844;52.380;7.018;2023-03-01T11:09:13;7.32;;;4.57;;
39098;SDS011;24844;52.380;7.018;2023-03-01T11:11:42;7.60;;;4.88;;
39098;SDS011;24844;52.380;7.018;2023-03-01T11:16:39;6.18;;;4.15;;
39098;SDS011;24844;52.380;7.018;2023-03-01T11:21:47;7.80;;;4.72;;
39098;SDS011;24844;52.380;7.018;2023-03-01T11:24:29;7.03;;;4.43;;
39098;SDS011;24844;52.380;7.018;2023-03-01T11:26:59;7.10;;;3.85;;
39098;SDS011;24844;52.380;7.018;2023-03-01T11:32:18;8.10;;;4.18;;
39098;SDS011;24844;52.380;7.018;2023-03-01T11:35:08;5.45;;;3.75;;
39098;SDS011;24844;52.380;7.018;2023-03-01T11:40:32;6.50;;;3.70;;
39098;SDS011;24844;52.380;7.018;2023-03-01T12:02:53;6.10;;;3.25;;
39098;SDS011;24844;52.380;7.018;2023-03-01T12:14:09;8.50;;;3.38;;
39098;SDS011;24844;52.380;7.018;2023-03-01T12:17:11;6.55;;;3.35;;
39098;SDS011;24844;52.380;7.018;2023-03-01T12:29:00;5.75;;;3.38;;
39098;SDS011;24844;52.380;7.018;2023-03-01T12:42:30;5.70;;;3.60;;
39098;SDS011;24844;52.380;7.018;2023-03-01T12:50:54;7.40;;;3.40;;
39098;SDS011;24844;52.380;7.018;2023-03-01T12:53:36;5.93;;;3.47;;
39098;SDS011;24844;52.380;7.018;2023-03-01T12:56:17;6.85;;;3.45;;
39098;SDS011;24844;52.380;7.018;2023-03-01T13:02:33;5.22;;;3.40;;
39098;SDS011;24844;52.380;7.018;2023-03-01T13:07:30;4.32;;;3.10;;
39098;SDS011;24844;52.380;7.018;2023-03-01T13:15:30;7.65;;;3.50;;
39098;SDS011;24844;52.380;7.018;2023-03-01T13:17:58;7.47;;;3.55;;
39098;SDS011;24844;52.380;7.018;2023-03-01T13:20:30;4.20;;;3.10;;
39098;SDS011;24844;52.380;7.018;2023-03-01T13:30:59;6.88;;;3.78;;
39098;SDS011;24844;52.380;7.018;2023-03-01T13:35:51;4.25;;;3.08;;
39098;SDS011;24844;52.380;7.018;2023-03-01T13:38:36;4.88;;;3.20;;
39098;SDS011;24844;52.380;7.018;2023-03-01T13:41:13;6.45;;;3.45;;
39098;SDS011;24844;52.380;7.018;2023-03-01T13:43:58;4.28;;;3.30;;
39098;SDS011;24844;52.380;7.018;2023-03-01T13:46:24;8.98;;;3.58;;
39098;SDS011;24844;52.380;7.018;2023-03-01T13:48:51;8.30;;;3.17;;
39098;SDS011;24844;52.380;7.018;2023-03-01T13:51:26;4.25;;;3.35;;
39098;SDS011;24844;52.380;7.018;2023-03-01T13:53:53;3.78;;;2.72;;
39098;SDS011;24844;52.380;7.018;2023-03-01T13:56:24;5.43;;;3.20;;
39098;SDS011;24844;52.380;7.018;2023-03-01T14:01:24;6.28;;;3.63;;
39098;SDS011;24844;52.380;7.018;2023-03-01T14:03:50;4.45;;;2.88;;
39098;SDS011;24844;52.380;7.018;2023-03-01T14:06:16;4.72;;;2.70;;
39098;SDS011;24844;52.380;7.018;2023-03-01T14:11:50;7.97;;;3.10;;
39098;SDS011;24844;52.380;7.018;2023-03-01T14:14:43;5.75;;;3.05;;
39098;SDS011;24844;52.380;7.018;2023-03-01T14:17:24;7.13;;;3.05;;
39098;SDS011;24844;52.380;7.018;2023-03-01T14:20:22;4.25;;;3.13;;
39098;SDS011;24844;52.380;7.018;2023-03-01T14:23:00;7.15;;;3.92;;
39098;SDS011;24844;52.380;7.018;2023-03-01T14:25:34;6.45;;;4.18;;
39098;SDS011;24844;52.380;7.018;2023-03-01T14:28:15;5.78;;;4.28;;
39098;SDS011;24844;52.380;7.018;2023-03-01T14:30:44;6.20;;;4.03;;
39098;SDS011;24844;52.380;7.018;2023-03-01T14:33:18;6.95;;;4.32;;
39098;SDS011;24844;52.380;7.018;2023-03-01T14:35:54;5.82;;;3.78;;
39098;SDS011;24844;52.380;7.018;2023-03-01T14:38:44;5.90;;;4.30;;
39098;SDS011;24844;52.380;7.018;2023-03-01T14:41:18;6.22;;;4.38;;
39098;SDS011;24844;52.380;7.018;2023-03-01T14:43:47;5.78;;;3.88;;
39098;SDS011;24844;52.380;7.018;2023-03-01T14:46:17;7.63;;;4.60;;
39098;SDS011;24844;52.380;7.018;2023-03-01T14:48:49;6.05;;;4.35;;
39098;SDS011;24844;52.380;7.018;2023-03-01T14:51:19;9.13;;;4.18;;
39098;SDS011;24844;52.380;7.018;2023-03-01T14:53:44;7.65;;;4.25;;
39098;SDS011;24844;52.380;7.018;2023-03-01T14:56:14;8.50;;;4.68;;
39098;SDS011;24844;52.380;7.018;2023-03-01T14:58:42;7.90;;;4.43;;
39098;SDS011;24844;52.380;7.018;2023-03-01T15:01:10;7.03;;;4.35;;
39098;SDS011;24844;52.380;7.018;2023-03-01T15:03:41;6.55;;;3.95;;
39098;SDS011;24844;52.380;7.018;2023-03-01T15:06:09;8.45;;;3.97;;
39098;SDS011;24844;52.380;7.018;2023-03-01T15:08:37;6.78;;;4.25;;
39098;SDS011;24844;52.380;7.018;2023-03-01T15:11:31;7.78;;;3.35;;
39098;SDS011;24844;52.380;7.018;2023-03-01T15:13:58;7.75;;;3.72;;
39098;SDS011;24844;52.380;7.018;2023-03-01T15:16:25;6.13;;;4.03;;
39098;SDS011;24844;52.380;7.018;2023-03-01T15:18:57;8.13;;;4.07;;
39098;SDS011;24844;52.380;7.018;2023-03-01T15:21:36;8.38;;;3.90;;
39098;SDS011;24844;52.380;7.018;2023-03-01T15:24:08;7.38;;;4.22;;
39098;SDS011;24844;52.380;7.018;2023-03-01T15:26:50;24.38;;;5.85;;
39098;SDS011;24844;52.380;7.018;2023-03-01T15:29:20;12.20;;;4.07;;
39098;SDS011;24844;52.380;7.018;2023-03-01T15:31:59;9.90;;;4.05;;
39098;SDS011;24844;52.380;7.018;2023-03-01T15:34:35;25.95;;;4.65;;
39098;SDS011;24844;52.380;7.018;2023-03-01T15:37:05;12.57;;;4.68;;
39098;SDS011;24844;52.380;7.018;2023-03-01T15:39:56;12.77;;;4.38;;
39098;SDS011;24844;52.380;7.018;2023-03-01T15:48:18;7.28;;;4.53;;
39098;SDS011;24844;52.380;7.018;2023-03-01T15:50:42;6.38;;;4.13;;
39098;SDS011;24844;52.380;7.018;2023-03-01T15:53:12;8.15;;;4.22;;
39098;SDS011;24844;52.380;7.018;2023-03-01T15:55:39;6.30;;;4.20;;
39098;SDS011;24844;52.380;7.018;2023-03-01T16:00:37;20.00;;;5.68;;
39098;SDS011;24844;52.380;7.018;2023-03-01T16:03:04;23.23;;;6.22;;
39098;SDS011;24844;52.380;7.018;2023-03-01T16:05:31;35.60;;;7.18;;
39098;SDS011;24844;52.380;7.018;2023-03-01T16:07:59;47.97;;;8.70;;
39098;SDS011;24844;52.380;7.018;2023-03-01T16:10:25;77.65;;;11.23;;
39098;SDS011;24844;52.380;7.018;2023-03-01T16:12:51;20.55;;;5.68;;
39098;SDS011;24844;52.380;7.018;2023-03-01T16:17:49;8.05;;;4.57;;
39098;SDS011;24844;52.380;7.018;2023-03-01T16:20:15;10.25;;;4.40;;
39098;SDS011;24844;52.380;7.018;2023-03-01T16:22:42;8.00;;;4.78;;
39098;SDS011;24844;52.380;7.018;2023-03-01T16:25:09;7.15;;;4.55;;
39098;SDS011;24844;52.380;7.018;2023-03-01T16:27:36;8.70;;;5.22;;
39098;SDS011;24844;52.380;7.018;2023-03-01T16:30:02;11.23;;;5.15;;
39098;SDS011;24844;52.380;7.018;2023-03-01T16:32:29;5.90;;;4.55;;
39098;SDS011;24844;52.380;7.018;2023-03-01T16:34:54;8.40;;;5.13;;
39098;SDS011;24844;52.380;7.018;2023-03-01T16:37:20;7.70;;;5.20;;
39098;SDS011;24844;52.380;7.018;2023-03-01T16:39:46;9.75;;;5.13;;
39098;SDS011;24844;52.380;7.018;2023-03-01T16:42:14;8.93;;;4.53;;
39098;SDS011;24844;52.380;7.018;2023-03-01T16:44:41;8.35;;;5.43;;
39098;SDS011;24844;52.380;7.018;2023-03-01T16:47:06;8.70;;;4.65;;
39098;SDS011;24844;52.380;7.018;2023-03-01T16:49:32;9.77;;;5.50;;
39098;SDS011;24844;52.380;7.018;2023-03-01T16:51:58;8.88;;;5.22;;
39098;SDS011;24844;52.380;7.018;2023-03-01T16:54:24;7.90;;;5.68;;
39098;SDS011;24844;52.380;7.018;2023-03-01T16:56:49;7.70;;;5.82;;
39098;SDS011;24844;52.380;7.018;2023-03-01T16:59:15;8.32;;;5.65;;
39098;SDS011;24844;52.380;7.018;2023-03-01T17:01:43;11.40;;;6.10;;
39098;SDS011;24844;52.380;7.018;2023-03-01T17:04:12;14.65;;;6.45;;
39098;SDS011;24844;52.380;7.018;2023-03-01T17:09:03;13.70;;;6.47;;
39098;SDS011;24844;52.380;7.018;2023-03-01T17:11:28;8.77;;;6.15;;
39098;SDS011;24844;52.380;7.018;2023-03-01T17:13:54;12.63;;;6.50;;
39098;SDS011;24844;52.380;7.018;2023-03-01T17:16:20;10.90;;;6.35;;
39098;SDS011;24844;52.380;7.018;2023-03-01T17:18:46;9.45;;;5.88;;
39098;SDS011;24844;52.380;7.018;2023-03-01T17:21:12;11.32;;;6.68;;
39098;SDS011;24844;52.380;7.018;2023-03-01T17:23:39;11.40;;;6.70;;
39098;SDS011;24844;52.380;7.018;2023-03-01T17:26:07;8.65;;;6.25;;